sensor_id;sensor_type;location;lat;lon;timestamp;P1;durP1;ratioP1;P2;durP2;ratioP2
84033;SDS011;74115;55.806;37.754;2024-03-02T00:02:43;31.48;;;13.82;;
84033;SDS011;74115;55.806;37.754;2024-03-02T00:05:13;30.90;;;15.27;;
84033;SDS011;74115;55.806;37.754;2024-03-02T00:07:43;26.95;;;14.43;;
84033;SDS011;74115;55.806;37.754;2024-03-02T00:10:16;36.60;;;14.13;;
84033;SDS011;74115;55.806;37.754;2024-03-02T00:12:46;29.67;;;13.77;;
84033;SDS011;74115;55.806;37.754;2024-03-02T00:17:45;25.92;;;15.60;;
84033;SDS011;74115;55.806;37.754;2024-03-02T00:20:11;31.95;;;14.93;;
84033;SDS011;74115;55.806;37.754;2024-03-02T00:22:41;32.08;;;15.35;;
84033;SDS011;74115;55.806;37.754;2024-03-02T00:25:06;25.77;;;14.13;;
84033;SDS011;74115;55.806;37.754;2024-03-02T00:27:34;29.00;;;16.27;;
84033;SDS011;74115;55.806;37.754;2024-03-02T00:30:00;27.73;;;15.25;;
84033;SDS011;74115;55.806;37.754;2024-03-02T00:32:26;31.25;;;15.45;;
84033;SDS011;74115;55.806;37.754;2024-03-02T00:34:53;35.13;;;17.70;;
84033;SDS011;74115;55.806;37.754;2024-03-02T00:37:19;39.47;;;16.55;;
84033;SDS011;74115;55.806;37.754;2024-03-02T00:39:48;30.38;;;16.80;;
84033;SDS011;74115;55.806;37.754;2024-03-02T00:42:14;27.90;;;14.88;;
84033;SDS011;74115;55.806;37.754;2024-03-02T00:44:40;33.55;;;15.63;;
84033;SDS011;74115;55.806;37.754;2024-03-02T00:47:05;33.80;;;16.35;;
84033;SDS011;74115;55.806;37.754;2024-03-02T00:49:32;29.40;;;16.40;;
84033;SDS011;74115;55.806;37.754;2024-03-02T00:51:58;34.70;;;16.33;;
84033;SDS011;74115;55.806;37.754;2024-03-02T00:54:27;33.10;;;16.13;;
84033;SDS011;74115;55.806;37.754;2024-03-02T00:56:54;32.60;;;15.40;;
84033;SDS011;74115;55.806;37.754;2024-03-02T00:59:24;28.48;;;15.27;;
84033;SDS011;74115;55.806;37.754;2024-03-02T01:01:49;30.83;;;15.60;;
84033;SDS011;74115;55.806;37.754;2024-03-02T01:04:16;32.45;;;15.32;;
84033;SDS011;74115;55.806;37.754;2024-03-02T01:06:42;30.08;;;14.98;;
84033;SDS011;74115;55.806;37.754;2024-03-02T01:09:08;32.00;;;15.98;;
84033;SDS011;74115;55.806;37.754;2024-03-02T01:11:34;28.30;;;13.85;;
84033;SDS011;74115;55.806;37.754;2024-03-02T01:14:00;24.70;;;14.10;;
84033;SDS011;74115;55.806;37.754;2024-03-02T01:16:25;29.40;;;13.88;;
84033;SDS011;74115;55.806;37.754;2024-03-02T01:18:51;31.25;;;15.38;;
84033;SDS011;74115;55.806;37.754;2024-03-02T01:21:17;30.92;;;15.80;;
84033;SDS011;74115;55.806;37.754;2024-03-02T01:23:43;26.27;;;13.45;;
84033;SDS011;74115;55.806;37.754;2024-03-02T01:26:08;27.55;;;14.75;;
84033;SDS011;74115;55.806;37.754;2024-03-02T01:28:34;29.90;;;12.95;;
84033;SDS011;74115;55.806;37.754;2024-03-02T01:31:00;26.60;;;13.32;;
84033;SDS011;74115;55.806;37.754;2024-03-02T01:33:27;25.88;;;13.40;;
84033;SDS011;74115;55.806;37.754;2024-03-02T01:35:53;32.85;;;15.32;;
84033;SDS011;74115;55.806;37.754;2024-03-02T01:38:18;29.45;;;14.80;;
84033;SDS011;74115;55.806;37.754;2024-03-02T01:40:44;34.58;;;15.98;;
84033;SDS011;74115;55.806;37.754;2024-03-02T01:43:10;33.92;;;16.50;;
84033;SDS011;74115;55.806;37.754;2024-03-02T01:45:36;31.42;;;15.32;;
84033;SDS011;74115;55.806;37.754;2024-03-02T01:48:06;31.50;;;14.25;;
84033;SDS011;74115;55.806;37.754;2024-03-02T01:50:32;29.05;;;15.40;;
84033;SDS011;74115;55.806;37.754;2024-03-02T01:52:58;27.63;;;14.85;;
84033;SDS011;74115;55.806;37.754;2024-03-02T01:55:25;33.83;;;14.85;;
84033;SDS011;74115;55.806;37.754;2024-03-02T01:57:51;28.33;;;16.27;;
84033;SDS011;74115;55.806;37.754;2024-03-02T02:00:18;29.48;;;15.00;;
84033;SDS011;74115;55.806;37.754;2024-03-02T02:02:44;32.53;;;15.70;;
84033;SDS011;74115;55.806;37.754;2024-03-02T02:05:12;31.95;;;14.75;;
84033;SDS011;74115;55.806;37.754;2024-03-02T02:07:40;34.45;;;15.85;;
84033;SDS011;74115;55.806;37.754;2024-03-02T02:10:07;26.85;;;14.00;;
84033;SDS011;74115;55.806;37.754;2024-03-02T02:12:33;29.65;;;14.85;;
84033;SDS011;74115;55.806;37.754;2024-03-02T02:14:59;30.65;;;14.93;;
84033;SDS011;74115;55.806;37.754;2024-03-02T02:17:25;28.85;;;15.68;;
84033;SDS011;74115;55.806;37.754;2024-03-02T02:19:50;29.27;;;14.35;;
84033;SDS011;74115;55.806;37.754;2024-03-02T02:22:16;30.80;;;15.43;;
84033;SDS011;74115;55.806;37.754;2024-03-02T02:24:42;34.75;;;16.25;;
84033;SDS011;74115;55.806;37.754;2024-03-02T02:27:08;32.10;;;16.70;;
84033;SDS011;74115;55.806;37.754;2024-03-02T02:29:34;38.67;;;17.90;;
84033;SDS011;74115;55.806;37.754;2024-03-02T02:32:00;32.53;;;16.40;;
84033;SDS011;74115;55.806;37.754;2024-03-02T02:34:25;29.52;;;17.10;;
84033;SDS011;74115;55.806;37.754;2024-03-02T02:36:51;28.30;;;15.02;;
84033;SDS011;74115;55.806;37.754;2024-03-02T02:39:17;30.77;;;15.82;;
84033;SDS011;74115;55.806;37.754;2024-03-02T02:41:44;33.85;;;16.25;;
84033;SDS011;74115;55.806;37.754;2024-03-02T02:44:09;34.20;;;16.02;;
84033;SDS011;74115;55.806;37.754;2024-03-02T02:46:41;36.40;;;19.38;;
84033;SDS011;74115;55.806;37.754;2024-03-02T02:49:06;36.50;;;16.58;;
84033;SDS011;74115;55.806;37.754;2024-03-02T02:51:32;34.83;;;16.77;;
84033;SDS011;74115;55.806;37.754;2024-03-02T02:53:58;39.80;;;18.88;;
84033;SDS011;74115;55.806;37.754;2024-03-02T02:56:24;34.83;;;17.50;;
84033;SDS011;74115;55.806;37.754;2024-03-02T02:58:50;32.92;;;16.38;;
84033;SDS011;74115;55.806;37.754;2024-03-02T03:01:16;40.17;;;20.52;;
84033;SDS011;74115;55.806;37.754;2024-03-02T03:03:45;29.30;;;16.17;;
84033;SDS011;74115;55.806;37.754;2024-03-02T03:06:11;34.15;;;18.95;;
84033;SDS011;74115;55.806;37.754;2024-03-02T03:08:37;41.15;;;18.13;;
84033;SDS011;74115;55.806;37.754;2024-03-02T03:11:03;36.58;;;17.75;;
84033;SDS011;74115;55.806;37.754;2024-03-02T03:13:30;40.15;;;19.08;;
84033;SDS011;74115;55.806;37.754;2024-03-02T03:15:57;33.20;;;18.23;;
84033;SDS011;74115;55.806;37.754;2024-03-02T03:18:23;35.20;;;17.42;;
84033;SDS011;74115;55.806;37.754;2024-03-02T03:20:48;33.63;;;18.35;;
84033;SDS011;74115;55.806;37.754;2024-03-02T03:23:15;38.83;;;19.63;;
84033;SDS011;74115;55.806;37.754;2024-03-02T03:25:43;34.13;;;18.83;;
84033;SDS011;74115;55.806;37.754;2024-03-02T03:28:09;33.17;;;19.48;;
84033;SDS011;74115;55.806;37.754;2024-03-02T03:30:39;40.75;;;19.20;;
84033;SDS011;74115;55.806;37.754;2024-03-02T03:33:05;36.25;;;18.42;;
84033;SDS011;74115;55.806;37.754;2024-03-02T03:35:34;39.45;;;19.83;;
84033;SDS011;74115;55.806;37.754;2024-03-02T03:38:00;43.53;;;22.75;;
84033;SDS011;74115;55.806;37.754;2024-03-02T03:40:25;38.15;;;18.45;;
84033;SDS011;74115;55.806;37.754;2024-03-02T03:42:51;35.00;;;18.13;;
84033;SDS011;74115;55.806;37.754;2024-03-02T03:45:17;41.80;;;20.70;;
84033;SDS011;74115;55.806;37.754;2024-03-02T03:47:43;39.40;;;18.98;;
84033;SDS011;74115;55.806;37.754;2024-03-02T03:50:09;47.95;;;20.90;;
84033;SDS011;74115;55.806;37.754;2024-03-02T03:52:35;39.50;;;21.60;;
84033;SDS011;74115;55.806;37.754;2024-03-02T03:55:01;48.92;;;21.23;;
84033;SDS011;74115;55.806;37.754;2024-03-02T03:57:29;47.10;;;21.48;;
84033;SDS011;74115;55.806;37.754;2024-03-02T03:59:55;55.90;;;25.58;;
84033;SDS011;74115;55.806;37.754;2024-03-02T04:02:21;55.08;;;26.30;;
84033;SDS011;74115;55.806;37.754;2024-03-02T04:04:46;57.38;;;26.20;;
84033;SDS011;74115;55.806;37.754;2024-03-02T04:07:12;63.67;;;29.70;;
84033;SDS011;74115;55.806;37.754;2024-03-02T04:09:38;58.30;;;30.35;;
84033;SDS011;74115;55.806;37.754;2024-03-02T04:12:03;60.50;;;28.50;;
84033;SDS011;74115;55.806;37.754;2024-03-02T04:14:29;53.75;;;28.65;;
84033;SDS011;74115;55.806;37.754;2024-03-02T04:16:55;61.90;;;28.60;;
84033;SDS011;74115;55.806;37.754;2024-03-02T04:19:21;57.03;;;27.58;;
84033;SDS011;74115;55.806;37.754;2024-03-02T04:21:47;53.45;;;26.63;;
84033;SDS011;74115;55.806;37.754;2024-03-02T04:24:15;51.60;;;25.42;;
84033;SDS011;74115;55.806;37.754;2024-03-02T04:26:40;47.50;;;23.95;;
84033;SDS011;74115;55.806;37.754;2024-03-02T04:29:06;42.15;;;22.02;;
84033;SDS011;74115;55.806;37.754;2024-03-02T04:31:32;50.53;;;24.13;;
84033;SDS011;74115;55.806;37.754;2024-03-02T04:33:57;45.95;;;22.50;;
84033;SDS011;74115;55.806;37.754;2024-03-02T04:36:23;47.42;;;21.98;;
84033;SDS011;74115;55.806;37.754;2024-03-02T04:38:49;39.70;;;20.90;;
84033;SDS011;74115;55.806;37.754;2024-03-02T04:41:15;44.53;;;21.45;;
84033;SDS011;74115;55.806;37.754;2024-03-02T04:43:40;44.30;;;22.77;;
84033;SDS011;74115;55.806;37.754;2024-03-02T04:46:06;42.20;;;21.77;;
84033;SDS011;74115;55.806;37.754;2024-03-02T04:48:32;44.63;;;20.67;;
84033;SDS011;74115;55.806;37.754;2024-03-02T04:50:59;51.33;;;23.23;;
84033;SDS011;74115;55.806;37.754;2024-03-02T04:53:25;46.35;;;23.10;;
84033;SDS011;74115;55.806;37.754;2024-03-02T04:55:50;48.55;;;22.73;;
84033;SDS011;74115;55.806;37.754;2024-03-02T04:58:36;46.38;;;21.08;;
84033;SDS011;74115;55.806;37.754;2024-03-02T05:01:02;47.17;;;22.13;;
84033;SDS011;74115;55.806;37.754;2024-03-02T05:03:28;42.53;;;22.30;;
84033;SDS011;74115;55.806;37.754;2024-03-02T05:05:53;44.88;;;20.98;;
84033;SDS011;74115;55.806;37.754;2024-03-02T05:08:19;32.03;;;17.58;;
84033;SDS011;74115;55.806;37.754;2024-03-02T05:10:45;39.70;;;20.25;;
84033;SDS011;74115;55.806;37.754;2024-03-02T05:13:11;38.03;;;20.45;;
84033;SDS011;74115;55.806;37.754;2024-03-02T05:15:36;48.00;;;22.08;;
84033;SDS011;74115;55.806;37.754;2024-03-02T05:18:02;40.83;;;20.85;;
84033;SDS011;74115;55.806;37.754;2024-03-02T05:20:30;48.67;;;23.75;;
84033;SDS011;74115;55.806;37.754;2024-03-02T05:22:56;50.72;;;22.92;;
84033;SDS011;74115;55.806;37.754;2024-03-02T05:25:21;61.45;;;25.27;;
84033;SDS011;74115;55.806;37.754;2024-03-02T05:27:48;49.33;;;22.35;;
84033;SDS011;74115;55.806;37.754;2024-03-02T05:30:13;51.42;;;21.85;;
84033;SDS011;74115;55.806;37.754;2024-03-02T05:32:39;50.35;;;21.77;;
84033;SDS011;74115;55.806;37.754;2024-03-02T05:35:06;33.58;;;17.25;;
84033;SDS011;74115;55.806;37.754;2024-03-02T05:37:32;40.67;;;21.45;;
84033;SDS011;74115;55.806;37.754;2024-03-02T05:39:58;39.70;;;20.88;;
84033;SDS011;74115;55.806;37.754;2024-03-02T05:42:24;46.17;;;23.02;;
84033;SDS011;74115;55.806;37.754;2024-03-02T05:44:50;43.15;;;19.92;;
84033;SDS011;74115;55.806;37.754;2024-03-02T05:47:16;41.83;;;21.40;;
84033;SDS011;74115;55.806;37.754;2024-03-02T05:49:41;37.00;;;19.88;;
84033;SDS011;74115;55.806;37.754;2024-03-02T05:52:08;42.08;;;21.40;;
84033;SDS011;74115;55.806;37.754;2024-03-02T05:54:34;39.70;;;19.40;;
84033;SDS011;74115;55.806;37.754;2024-03-02T05:56:59;33.88;;;16.88;;
84033;SDS011;74115;55.806;37.754;2024-03-02T05:59:41;38.10;;;17.45;;
84033;SDS011;74115;55.806;37.754;2024-03-02T06:02:08;33.40;;;18.05;;
84033;SDS011;74115;55.806;37.754;2024-03-02T06:04:33;42.22;;;17.35;;
84033;SDS011;74115;55.806;37.754;2024-03-02T06:06:59;33.63;;;18.10;;
84033;SDS011;74115;55.806;37.754;2024-03-02T06:09:25;42.63;;;18.95;;
84033;SDS011;74115;55.806;37.754;2024-03-02T06:11:51;36.28;;;16.88;;
84033;SDS011;74115;55.806;37.754;2024-03-02T06:14:17;34.28;;;15.52;;
84033;SDS011;74115;55.806;37.754;2024-03-02T06:16:43;33.08;;;18.33;;
84033;SDS011;74115;55.806;37.754;2024-03-02T06:19:08;36.92;;;16.65;;
84033;SDS011;74115;55.806;37.754;2024-03-02T06:21:34;38.78;;;18.13;;
84033;SDS011;74115;55.806;37.754;2024-03-02T06:24:00;36.03;;;20.17;;
84033;SDS011;74115;55.806;37.754;2024-03-02T06:26:26;36.92;;;18.05;;
84033;SDS011;74115;55.806;37.754;2024-03-02T06:28:52;38.10;;;18.25;;
84033;SDS011;74115;55.806;37.754;2024-03-02T06:31:17;33.63;;;17.58;;
84033;SDS011;74115;55.806;37.754;2024-03-02T06:33:43;34.47;;;18.50;;
84033;SDS011;74115;55.806;37.754;2024-03-02T06:36:09;48.92;;;21.17;;
84033;SDS011;74115;55.806;37.754;2024-03-02T06:38:35;46.97;;;22.05;;
84033;SDS011;74115;55.806;37.754;2024-03-02T06:41:01;38.30;;;19.80;;
84033;SDS011;74115;55.806;37.754;2024-03-02T06:43:26;42.28;;;17.95;;
84033;SDS011;74115;55.806;37.754;2024-03-02T06:45:52;35.55;;;16.98;;
84033;SDS011;74115;55.806;37.754;2024-03-02T06:48:18;37.53;;;18.92;;
84033;SDS011;74115;55.806;37.754;2024-03-02T06:50:49;41.42;;;19.70;;
84033;SDS011;74115;55.806;37.754;2024-03-02T06:53:15;37.97;;;19.48;;
84033;SDS011;74115;55.806;37.754;2024-03-02T06:55:45;43.75;;;19.08;;
84033;SDS011;74115;55.806;37.754;2024-03-02T06:58:12;37.65;;;19.48;;
84033;SDS011;74115;55.806;37.754;2024-03-02T07:00:38;46.05;;;20.00;;
84033;SDS011;74115;55.806;37.754;2024-03-02T07:03:04;37.83;;;21.27;;
84033;SDS011;74115;55.806;37.754;2024-03-02T07:05:30;38.03;;;19.05;;
84033;SDS011;74115;55.806;37.754;2024-03-02T07:07:55;30.27;;;16.50;;
84033;SDS011;74115;55.806;37.754;2024-03-02T07:10:21;40.80;;;20.63;;
84033;SDS011;74115;55.806;37.754;2024-03-02T07:12:47;48.17;;;18.45;;
84033;SDS011;74115;55.806;37.754;2024-03-02T07:15:12;37.20;;;18.17;;
84033;SDS011;74115;55.806;37.754;2024-03-02T07:17:55;41.05;;;18.90;;
84033;SDS011;74115;55.806;37.754;2024-03-02T07:20:21;43.65;;;20.42;;
84033;SDS011;74115;55.806;37.754;2024-03-02T07:22:47;40.30;;;20.77;;
84033;SDS011;74115;55.806;37.754;2024-03-02T07:25:13;37.70;;;17.88;;
84033;SDS011;74115;55.806;37.754;2024-03-02T07:27:39;34.40;;;19.08;;
84033;SDS011;74115;55.806;37.754;2024-03-02T07:30:05;32.67;;;17.40;;
84033;SDS011;74115;55.806;37.754;2024-03-02T07:32:32;40.80;;;19.33;;
84033;SDS011;74115;55.806;37.754;2024-03-02T07:34:57;41.70;;;21.17;;
84033;SDS011;74115;55.806;37.754;2024-03-02T07:37:23;38.75;;;20.95;;
84033;SDS011;74115;55.806;37.754;2024-03-02T07:39:50;38.38;;;18.52;;
84033;SDS011;74115;55.806;37.754;2024-03-02T07:42:16;34.85;;;18.35;;
84033;SDS011;74115;55.806;37.754;2024-03-02T07:44:43;38.53;;;20.20;;
84033;SDS011;74115;55.806;37.754;2024-03-02T07:47:09;39.67;;;19.50;;
84033;SDS011;74115;55.806;37.754;2024-03-02T07:49:35;39.05;;;18.67;;
84033;SDS011;74115;55.806;37.754;2024-03-02T07:52:01;38.17;;;18.88;;
84033;SDS011;74115;55.806;37.754;2024-03-02T07:54:26;35.00;;;17.75;;
84033;SDS011;74115;55.806;37.754;2024-03-02T07:56:52;37.35;;;17.58;;
84033;SDS011;74115;55.806;37.754;2024-03-02T07:59:18;37.08;;;18.48;;
84033;SDS011;74115;55.806;37.754;2024-03-02T08:01:43;39.08;;;19.65;;
84033;SDS011;74115;55.806;37.754;2024-03-02T08:04:09;32.05;;;18.85;;
84033;SDS011;74115;55.806;37.754;2024-03-02T08:06:35;40.42;;;19.88;;
84033;SDS011;74115;55.806;37.754;2024-03-02T08:09:01;40.00;;;19.35;;
84033;SDS011;74115;55.806;37.754;2024-03-02T08:11:27;23.58;;;15.18;;
84033;SDS011;74115;55.806;37.754;2024-03-02T08:13:53;37.72;;;20.38;;
84033;SDS011;74115;55.806;37.754;2024-03-02T08:16:20;30.02;;;15.43;;
84033;SDS011;74115;55.806;37.754;2024-03-02T08:18:50;41.65;;;19.42;;
84033;SDS011;74115;55.806;37.754;2024-03-02T08:21:16;43.15;;;19.92;;
84033;SDS011;74115;55.806;37.754;2024-03-02T08:23:42;43.42;;;18.50;;
84033;SDS011;74115;55.806;37.754;2024-03-02T08:26:08;32.55;;;17.35;;
84033;SDS011;74115;55.806;37.754;2024-03-02T08:28:35;41.30;;;16.88;;
84033;SDS011;74115;55.806;37.754;2024-03-02T08:31:02;35.58;;;17.25;;
84033;SDS011;74115;55.806;37.754;2024-03-02T08:33:30;37.28;;;18.73;;
84033;SDS011;74115;55.806;37.754;2024-03-02T08:35:56;41.33;;;19.15;;
84033;SDS011;74115;55.806;37.754;2024-03-02T08:38:22;35.58;;;16.88;;
84033;SDS011;74115;55.806;37.754;2024-03-02T08:40:49;30.35;;;16.20;;
84033;SDS011;74115;55.806;37.754;2024-03-02T08:43:15;39.50;;;17.05;;
84033;SDS011;74115;55.806;37.754;2024-03-02T08:45:41;33.05;;;17.77;;
84033;SDS011;74115;55.806;37.754;2024-03-02T08:48:07;34.70;;;18.13;;
84033;SDS011;74115;55.806;37.754;2024-03-02T08:50:36;32.38;;;16.80;;
84033;SDS011;74115;55.806;37.754;2024-03-02T08:53:05;29.08;;;16.35;;
84033;SDS011;74115;55.806;37.754;2024-03-02T08:55:31;34.97;;;16.77;;
84033;SDS011;74115;55.806;37.754;2024-03-02T08:57:56;31.10;;;17.20;;
84033;SDS011;74115;55.806;37.754;2024-03-02T09:00:23;25.35;;;13.20;;
84033;SDS011;74115;55.806;37.754;2024-03-02T09:02:48;35.08;;;17.50;;
84033;SDS011;74115;55.806;37.754;2024-03-02T09:05:14;36.05;;;19.77;;
84033;SDS011;74115;55.806;37.754;2024-03-02T09:07:40;38.97;;;19.27;;
84033;SDS011;74115;55.806;37.754;2024-03-02T09:10:06;39.42;;;16.85;;
84033;SDS011;74115;55.806;37.754;2024-03-02T09:12:32;34.38;;;17.05;;
84033;SDS011;74115;55.806;37.754;2024-03-02T09:14:59;34.58;;;16.58;;
84033;SDS011;74115;55.806;37.754;2024-03-02T09:17:25;37.90;;;17.80;;
84033;SDS011;74115;55.806;37.754;2024-03-02T09:19:51;35.72;;;17.02;;
84033;SDS011;74115;55.806;37.754;2024-03-02T09:22:18;41.42;;;17.30;;
84033;SDS011;74115;55.806;37.754;2024-03-02T09:24:44;30.17;;;16.30;;
84033;SDS011;74115;55.806;37.754;2024-03-02T09:27:10;34.03;;;16.27;;
84033;SDS011;74115;55.806;37.754;2024-03-02T09:29:36;38.90;;;18.05;;
84033;SDS011;74115;55.806;37.754;2024-03-02T09:32:01;39.15;;;17.60;;
84033;SDS011;74115;55.806;37.754;2024-03-02T09:34:27;37.35;;;17.38;;
84033;SDS011;74115;55.806;37.754;2024-03-02T09:36:53;32.67;;;16.40;;
84033;SDS011;74115;55.806;37.754;2024-03-02T09:39:19;33.22;;;15.50;;
84033;SDS011;74115;55.806;37.754;2024-03-02T09:41:45;32.70;;;15.15;;
84033;SDS011;74115;55.806;37.754;2024-03-02T09:44:11;33.13;;;16.55;;
84033;SDS011;74115;55.806;37.754;2024-03-02T09:46:37;33.15;;;17.55;;
84033;SDS011;74115;55.806;37.754;2024-03-02T09:49:02;35.92;;;17.45;;
84033;SDS011;74115;55.806;37.754;2024-03-02T09:51:28;30.65;;;15.15;;
84033;SDS011;74115;55.806;37.754;2024-03-02T09:53:54;29.05;;;15.13;;
84033;SDS011;74115;55.806;37.754;2024-03-02T09:56:23;34.75;;;17.88;;
84033;SDS011;74115;55.806;37.754;2024-03-02T09:58:49;30.17;;;15.10;;
84033;SDS011;74115;55.806;37.754;2024-03-02T10:01:14;37.97;;;17.58;;
84033;SDS011;74115;55.806;37.754;2024-03-02T10:03:40;28.92;;;15.00;;
84033;SDS011;74115;55.806;37.754;2024-03-02T10:06:21;31.40;;;14.98;;
84033;SDS011;74115;55.806;37.754;2024-03-02T10:08:50;27.88;;;13.82;;
84033;SDS011;74115;55.806;37.754;2024-03-02T10:14:04;23.77;;;11.45;;
84033;SDS011;74115;55.806;37.754;2024-03-02T10:16:39;31.58;;;15.93;;
84033;SDS011;74115;55.806;37.754;2024-03-02T10:19:16;33.10;;;14.70;;
84033;SDS011;74115;55.806;37.754;2024-03-02T10:21:43;28.83;;;15.15;;
84033;SDS011;74115;55.806;37.754;2024-03-02T10:24:12;30.25;;;14.52;;
84033;SDS011;74115;55.806;37.754;2024-03-02T10:26:38;34.20;;;16.70;;
84033;SDS011;74115;55.806;37.754;2024-03-02T10:29:04;35.45;;;16.50;;
84033;SDS011;74115;55.806;37.754;2024-03-02T10:31:30;34.53;;;16.63;;
84033;SDS011;74115;55.806;37.754;2024-03-02T10:33:57;25.23;;;14.23;;
84033;SDS011;74115;55.806;37.754;2024-03-02T10:36:23;29.77;;;15.35;;
84033;SDS011;74115;55.806;37.754;2024-03-02T10:41:22;33.80;;;14.20;;
84033;SDS011;74115;55.806;37.754;2024-03-02T10:43:49;31.50;;;16.75;;
84033;SDS011;74115;55.806;37.754;2024-03-02T10:46:19;30.42;;;16.13;;
84033;SDS011;74115;55.806;37.754;2024-03-02T10:48:45;33.75;;;16.40;;
84033;SDS011;74115;55.806;37.754;2024-03-02T10:51:12;31.27;;;15.73;;
84033;SDS011;74115;55.806;37.754;2024-03-02T10:53:37;29.13;;;13.65;;
84033;SDS011;74115;55.806;37.754;2024-03-02T10:56:03;30.92;;;16.13;;
84033;SDS011;74115;55.806;37.754;2024-03-02T10:58:32;25.95;;;14.35;;
84033;SDS011;74115;55.806;37.754;2024-03-02T11:01:00;29.88;;;15.52;;
84033;SDS011;74115;55.806;37.754;2024-03-02T11:03:29;33.38;;;15.80;;
84033;SDS011;74115;55.806;37.754;2024-03-02T11:05:55;28.98;;;14.00;;
84033;SDS011;74115;55.806;37.754;2024-03-02T11:08:21;30.85;;;14.60;;
84033;SDS011;74115;55.806;37.754;2024-03-02T11:10:50;37.15;;;16.38;;
84033;SDS011;74115;55.806;37.754;2024-03-02T11:13:19;33.00;;;15.48;;
84033;SDS011;74115;55.806;37.754;2024-03-02T11:15:49;28.10;;;14.52;;
84033;SDS011;74115;55.806;37.754;2024-03-02T11:18:18;25.63;;;14.75;;
84033;SDS011;74115;55.806;37.754;2024-03-02T11:20:44;26.08;;;13.88;;
84033;SDS011;74115;55.806;37.754;2024-03-02T11:23:11;26.75;;;14.60;;
84033;SDS011;74115;55.806;37.754;2024-03-02T11:25:37;28.85;;;15.15;;
84033;SDS011;74115;55.806;37.754;2024-03-02T11:28:05;28.25;;;15.15;;
84033;SDS011;74115;55.806;37.754;2024-03-02T11:32:57;27.17;;;13.73;;
84033;SDS011;74115;55.806;37.754;2024-03-02T11:35:26;31.95;;;13.43;;
84033;SDS011;74115;55.806;37.754;2024-03-02T11:37:54;30.60;;;13.77;;
84033;SDS011;74115;55.806;37.754;2024-03-02T11:40:23;29.95;;;13.98;;
84033;SDS011;74115;55.806;37.754;2024-03-02T11:42:50;24.60;;;12.57;;
84033;SDS011;74115;55.806;37.754;2024-03-02T11:45:22;33.38;;;15.27;;
84033;SDS011;74115;55.806;37.754;2024-03-02T11:47:53;33.90;;;15.35;;
84033;SDS011;74115;55.806;37.754;2024-03-02T11:50:35;25.40;;;13.07;;
84033;SDS011;74115;55.806;37.754;2024-03-02T11:53:08;30.17;;;14.52;;
84033;SDS011;74115;55.806;37.754;2024-03-02T11:55:38;25.38;;;14.43;;
84033;SDS011;74115;55.806;37.754;2024-03-02T11:58:14;25.42;;;13.68;;
84033;SDS011;74115;55.806;37.754;2024-03-02T12:00:50;29.95;;;15.02;;
84033;SDS011;74115;55.806;37.754;2024-03-02T12:03:20;27.52;;;14.07;;
84033;SDS011;74115;55.806;37.754;2024-03-02T12:05:48;29.00;;;13.93;;
84033;SDS011;74115;55.806;37.754;2024-03-02T12:08:17;29.38;;;13.80;;
84033;SDS011;74115;55.806;37.754;2024-03-02T12:10:43;35.40;;;14.90;;
84033;SDS011;74115;55.806;37.754;2024-03-02T12:13:21;25.73;;;13.23;;
84033;SDS011;74115;55.806;37.754;2024-03-02T12:15:52;31.02;;;16.13;;
84033;SDS011;74115;55.806;37.754;2024-03-02T12:18:21;28.23;;;14.07;;
84033;SDS011;74115;55.806;37.754;2024-03-02T12:20:50;21.67;;;13.60;;
84033;SDS011;74115;55.806;37.754;2024-03-02T12:23:22;25.45;;;13.10;;
84033;SDS011;74115;55.806;37.754;2024-03-02T12:25:48;25.63;;;12.88;;
84033;SDS011;74115;55.806;37.754;2024-03-02T12:28:14;27.10;;;12.70;;
84033;SDS011;74115;55.806;37.754;2024-03-02T12:30:40;31.75;;;12.65;;
84033;SDS011;74115;55.806;37.754;2024-03-02T12:33:06;24.50;;;11.20;;
84033;SDS011;74115;55.806;37.754;2024-03-02T12:35:31;22.48;;;11.63;;
84033;SDS011;74115;55.806;37.754;2024-03-02T12:37:57;25.65;;;12.18;;
84033;SDS011;74115;55.806;37.754;2024-03-02T12:40:23;24.60;;;11.80;;
84033;SDS011;74115;55.806;37.754;2024-03-02T12:42:49;22.58;;;12.02;;
84033;SDS011;74115;55.806;37.754;2024-03-02T12:45:15;22.63;;;11.70;;
84033;SDS011;74115;55.806;37.754;2024-03-02T12:47:42;29.25;;;12.48;;
84033;SDS011;74115;55.806;37.754;2024-03-02T12:50:09;20.73;;;11.27;;
84033;SDS011;74115;55.806;37.754;2024-03-02T12:52:35;23.52;;;10.93;;
84033;SDS011;74115;55.806;37.754;2024-03-02T12:55:02;23.33;;;12.32;;
84033;SDS011;74115;55.806;37.754;2024-03-02T12:57:30;25.40;;;10.50;;
84033;SDS011;74115;55.806;37.754;2024-03-02T13:02:35;24.23;;;10.55;;
84033;SDS011;74115;55.806;37.754;2024-03-02T13:05:02;25.48;;;11.77;;
84033;SDS011;74115;55.806;37.754;2024-03-02T13:07:29;28.88;;;13.25;;
84033;SDS011;74115;55.806;37.754;2024-03-02T13:09:55;19.08;;;11.35;;
84033;SDS011;74115;55.806;37.754;2024-03-02T13:12:22;37.45;;;12.80;;
84033;SDS011;74115;55.806;37.754;2024-03-02T13:14:52;27.55;;;11.43;;
84033;SDS011;74115;55.806;37.754;2024-03-02T13:17:18;22.40;;;11.10;;
84033;SDS011;74115;55.806;37.754;2024-03-02T13:19:51;20.38;;;11.80;;
84033;SDS011;74115;55.806;37.754;2024-03-02T13:22:24;29.20;;;12.88;;
84033;SDS011;74115;55.806;37.754;2024-03-02T13:24:50;24.08;;;10.95;;
84033;SDS011;74115;55.806;37.754;2024-03-02T13:27:17;24.25;;;12.20;;
84033;SDS011;74115;55.806;37.754;2024-03-02T13:29:46;23.38;;;12.95;;
84033;SDS011;74115;55.806;37.754;2024-03-02T13:32:15;25.40;;;12.93;;
84033;SDS011;74115;55.806;37.754;2024-03-02T13:34:41;22.30;;;11.30;;
84033;SDS011;74115;55.806;37.754;2024-03-02T13:37:07;25.83;;;12.63;;
84033;SDS011;74115;55.806;37.754;2024-03-02T13:39:33;23.15;;;13.27;;
84033;SDS011;74115;55.806;37.754;2024-03-02T13:42:06;24.17;;;12.55;;
84033;SDS011;74115;55.806;37.754;2024-03-02T13:44:33;18.52;;;11.85;;
84033;SDS011;74115;55.806;37.754;2024-03-02T13:47:00;24.55;;;13.52;;
84033;SDS011;74115;55.806;37.754;2024-03-02T13:49:26;24.20;;;12.68;;
84033;SDS011;74115;55.806;37.754;2024-03-02T13:51:59;17.30;;;10.88;;
84033;SDS011;74115;55.806;37.754;2024-03-02T13:54:28;22.52;;;13.20;;
84033;SDS011;74115;55.806;37.754;2024-03-02T13:56:55;24.10;;;12.52;;
84033;SDS011;74115;55.806;37.754;2024-03-02T13:59:23;24.48;;;12.82;;
84033;SDS011;74115;55.806;37.754;2024-03-02T14:01:48;24.90;;;12.38;;
84033;SDS011;74115;55.806;37.754;2024-03-02T14:04:15;23.88;;;11.55;;
84033;SDS011;74115;55.806;37.754;2024-03-02T14:06:41;26.13;;;13.95;;
84033;SDS011;74115;55.806;37.754;2024-03-02T14:09:08;22.45;;;11.95;;
84033;SDS011;74115;55.806;37.754;2024-03-02T14:11:34;25.83;;;11.65;;
84033;SDS011;74115;55.806;37.754;2024-03-02T14:14:01;25.77;;;13.38;;
84033;SDS011;74115;55.806;37.754;2024-03-02T14:16:30;22.35;;;11.10;;
84033;SDS011;74115;55.806;37.754;2024-03-02T14:21:21;22.67;;;11.05;;
84033;SDS011;74115;55.806;37.754;2024-03-02T14:23:47;22.83;;;11.43;;